Time;durP1;ratioP1;P1;durP2;ratioP2;P2;SDS_P1;SDS_P2;PMS_P1;PMS_P2;Temp;Humidity;BMP_temperature;BMP_pressure;BME280_temperature;BME280_humidity;BME280_pressure;Samples;Min_cycle;Max_cycle;Signal;HPM_P1;HPM_P2
2022/03/31 00:00:47;;;;;;;2.88;0.45;;;4.40;99.90;;;;;;5051835;28;20380;-80
2022/03/31 00:03:16;;;;;;;2.17;0.28;;;4.50;99.90;;;;;;5068633;28;20040;-80
2022/03/31 00:05:42;;;;;;;2.88;0.50;;;4.40;99.90;;;;;;5069136;28;20044;-80
2022/03/31 00:08:10;;;;;;;2.83;0.20;;;4.40;99.90;;;;;;5068695;28;20504;-82
2022/03/31 00:10:41;;;;;;;1.17;0.30;;;4.40;99.90;;;;;;5070468;28;20112;-80
2022/03/31 00:13:14;;;;;;;2.05;0.35;;;4.40;99.90;;;;;;5068507;28;20368;-82
2022/03/31 00:15:40;;;;;;;5.95;0.95;;;4.30;99.90;;;;;;5068510;28;20388;-80
2022/03/31 00:18:09;;;;;;;4.55;0.70;;;3.10;99.90;;;;;;5069274;28;20094;-81
2022/03/31 00:23:57;;;;;;;2.40;0.35;;;4.30;99.90;;;;;;5064992;28;20048;-81
2022/03/31 00:26:23;;;;;;;1.30;0.32;;;4.20;99.90;;;;;;5068139;28;20094;-80
2022/03/31 00:28:48;;;;;;;4.05;0.73;;;4.30;99.90;;;;;;5051335;28;20113;-81
2022/03/31 00:31:14;;;;;;;2.85;0.30;;;4.30;99.90;;;;;;5067304;28;20056;-81
2022/03/31 00:33:40;;;;;;;3.25;0.47;;;4.30;99.90;;;;;;5069668;28;20052;-82
2022/03/31 00:36:05;;;;;;;7.10;0.50;;;4.30;99.90;;;;;;5033832;28;20044;-81
2022/03/31 00:38:31;;;;;;;3.25;0.50;;;4.30;99.90;;;;;;5067931;28;20044;-82
2022/03/31 00:40:57;;;;;;;3.72;0.50;;;4.30;99.90;;;;;;5050920;28;20043;-81
2022/03/31 00:43:22;;;;;;;8.02;0.80;;;4.20;99.90;;;;;;5067559;28;20446;-79
2022/03/31 00:45:50;;;;;;;2.78;0.43;;;4.20;99.90;;;;;;5068064;28;20227;-82
2022/03/31 00:48:17;;;;;;;2.17;0.38;;;4.20;99.90;;;;;;5050987;28;20132;-82
2022/03/31 00:50:43;;;;;;;2.08;0.40;;;4.20;99.90;;;;;;5068542;28;20040;-81
2022/03/31 00:53:09;;;;;;;3.90;0.73;;;2.70;99.90;;;;;;5050772;28;20500;-81
2022/03/31 00:55:35;;;;;;;1.08;0.40;;;4.20;99.90;;;;;;5067966;28;20044;-82
2022/03/31 00:58:01;;;;;;;2.22;0.40;;;4.20;99.90;;;;;;5067724;28;20234;-80
2022/03/31 01:00:29;;;;;;;1.65;0.22;;;4.10;99.90;;;;;;5051109;28;20524;-82
2022/03/31 01:02:55;;;;;;;2.60;0.98;;;4.10;99.90;;;;;;5068625;28;20052;-81
2022/03/31 01:05:20;;;;;;;2.80;0.43;;;4.10;99.90;;;;;;5066599;28;20047;-81
2022/03/31 01:07:46;;;;;;;3.75;0.85;;;4.10;99.90;;;;;;5068295;28;20395;-81
2022/03/31 01:10:14;;;;;;;3.20;0.85;;;4.10;99.90;;;;;;5068591;28;20045;-82
2022/03/31 01:12:40;;;;;;;6.90;0.90;;;4.10;99.90;;;;;;5068249;28;20437;-81
2022/03/31 01:15:09;;;;;;;2.38;0.40;;;4.10;99.90;;;;;;5067061;28;20097;-82
2022/03/31 01:17:37;;;;;;;4.93;0.40;;;4.10;99.90;;;;;;5067113;28;20055;-81
2022/03/31 01:20:05;;;;;;;3.15;0.20;;;4.10;99.90;;;;;;5067783;28;21099;-81
2022/03/31 01:22:32;;;;;;;4.50;0.52;;;4.20;99.90;;;;;;5060765;28;20501;-81
2022/03/31 01:24:59;;;;;;;2.10;0.20;;;4.20;99.90;;;;;;5066823;28;20048;-81
2022/03/31 01:27:25;;;;;;;3.38;0.40;;;4.20;99.90;;;;;;5067710;28;20048;-81
2022/03/31 01:29:52;;;;;;;3.22;0.30;;;4.10;99.90;;;;;;5068415;28;20040;-81
2022/03/31 01:32:18;;;;;;;5.70;0.35;;;4.10;99.90;;;;;;5067586;28;20051;-82
2022/03/31 01:34:44;;;;;;;4.88;0.40;;;4.10;99.90;;;;;;5050114;28;20132;-80
2022/03/31 01:37:10;;;;;;;3.35;0.47;;;4.10;99.90;;;;;;5066611;28;20078;-82
2022/03/31 01:39:36;;;;;;;7.05;2.15;;;4.10;99.90;;;;;;5066635;28;20040;-81
2022/03/31 01:42:02;;;;;;;1.35;0.30;;;4.10;99.90;;;;;;5068043;28;20564;-81
2022/03/31 01:44:28;;;;;;;2.30;0.38;;;4.10;99.90;;;;;;5067128;28;20128;-83
2022/03/31 01:46:53;;;;;;;2.70;0.30;;;4.10;99.90;;;;;;5032803;28;20044;-82
2022/03/31 01:49:19;;;;;;;4.30;0.63;;;4.10;99.90;;;;;;5066558;28;20041;-80
2022/03/31 01:51:45;;;;;;;4.60;1.48;;;4.10;99.90;;;;;;5066301;28;20037;-80
2022/03/31 01:54:11;;;;;;;0.73;0.20;;;4.10;99.90;;;;;;5067767;28;20137;-81
2022/03/31 01:56:41;;;;;;;2.22;0.28;;;4.10;99.90;;;;;;5068102;28;20029;-82
2022/03/31 01:59:07;;;;;;;1.35;0.40;;;4.10;99.90;;;;;;5049743;28;20063;-83
2022/03/31 02:01:33;;;;;;;2.47;0.47;;;4.10;99.90;;;;;;5066243;28;20044;-81
2022/03/31 02:03:59;;;;;;;2.70;0.40;;;4.10;99.90;;;;;;5049725;28;20037;-81
2022/03/31 02:06:25;;;;;;;4.75;0.57;;;4.10;99.90;;;;;;5067202;28;20048;-80
2022/03/31 02:08:50;;;;;;;4.15;0.68;;;4.10;99.90;;;;;;5065707;28;20380;-82
2022/03/31 02:11:19;;;;;;;4.03;1.13;;;4.10;99.90;;;;;;5067787;28;20370;-82
2022/03/31 02:13:44;;;;;;;1.92;1.00;;;4.00;99.90;;;;;;5049657;28;20487;-81
2022/03/31 02:16:10;;;;;;;3.95;1.08;;;4.00;99.90;;;;;;5067000;28;20130;-82
2022/03/31 02:18:36;;;;;;;3.72;1.38;;;4.10;99.90;;;;;;5068309;28;20072;-83
2022/03/31 02:21:03;;;;;;;2.47;1.40;;;4.10;99.90;;;;;;5067659;28;20044;-82
2022/03/31 02:23:31;;;;;;;4.20;2.00;;;4.00;99.90;;;;;;5066012;28;20037;-82
2022/03/31 02:25:57;;;;;;;4.18;1.70;;;4.10;99.90;;;;;;5049523;28;20065;-81
2022/03/31 02:28:23;;;;;;;4.53;2.17;;;4.10;99.90;;;;;;5066582;28;20044;-81
2022/03/31 02:30:51;;;;;;;3.05;1.90;;;4.00;99.90;;;;;;5067247;28;20472;-81
2022/03/31 02:33:16;;;;;;;2.55;1.88;;;4.00;99.90;;;;;;5067457;28;20051;-81
2022/03/31 02:35:42;;;;;;;1.85;1.73;;;3.80;99.90;;;;;;5066210;28;20049;-82
2022/03/31 02:38:08;;;;;;;5.60;2.67;;;4.30;99.90;;;;;;5070034;28;20048;-83
2022/03/31 02:40:33;;;;;;;3.50;2.15;;;4.00;99.90;;;;;;5045981;28;20052;-81
2022/03/31 02:42:59;;;;;;;3.35;1.98;;;4.00;99.90;;;;;;5070706;28;20047;-82
2022/03/31 02:45:25;;;;;;;5.28;2.45;;;4.00;99.90;;;;;;5070590;28;20045;-81
2022/03/31 02:47:50;;;;;;;6.45;2.60;;;4.00;99.90;;;;;;5052872;28;20044;-82
2022/03/31 02:50:19;;;;;;;6.32;2.60;;;3.90;99.90;;;;;;5069332;28;20263;-82
2022/03/31 02:55:31;;;;;;;3.85;2.50;;;5.30;99.90;;;;;;5071566;28;20049;-82
2022/03/31 02:58:02;;;;;;;3.08;2.75;;;3.90;99.90;;;;;;5069901;28;20040;-81
2022/03/31 03:00:32;;;;;;;5.53;2.83;;;3.90;99.90;;;;;;5053592;28;20051;-81
2022/03/31 03:03:01;;;;;;;4.22;3.65;;;3.50;99.90;;;;;;5036126;28;20048;-82
2022/03/31 03:05:27;;;;;;;4.78;3.20;;;3.70;99.90;;;;;;5052469;28;20049;-81
2022/03/31 03:07:52;;;;;;;7.95;3.50;;;3.90;99.90;;;;;;5069645;28;20044;-78
2022/03/31 03:10:18;;;;;;;3.75;3.40;;;4.50;99.90;;;;;;5053018;28;20127;-81
2022/03/31 03:12:44;;;;;;;4.13;3.72;;;5.50;99.90;;;;;;5068888;28;20514;-77
2022/03/31 03:15:11;;;;;;;4.75;4.30;;;3.60;99.90;;;;;;5071179;28;20094;-79
2022/03/31 03:17:42;;;;;;;7.10;5.63;;;3.10;99.90;;;;;;5095033;28;20051;-82
2022/03/31 03:20:13;;;;;;;8.40;5.18;;;3.80;99.90;;;;;;5052507;28;20508;-81
2022/03/31 03:22:51;;;;;;;4.82;4.32;;;3.80;99.90;;;;;;5045709;28;20079;-83
2022/03/31 03:25:19;;;;;;;5.32;4.82;;;5.50;99.90;;;;;;5035601;28;20060;-82
2022/03/31 03:27:48;;;;;;;5.18;3.58;;;5.20;99.90;;;;;;5052240;28;20056;-83
2022/03/31 03:30:18;;;;;;;4.03;3.63;;;3.80;99.90;;;;;;5052618;28;20131;-80
2022/03/31 03:32:45;;;;;;;3.70;3.30;;;2.20;99.90;;;;;;5052064;28;20045;-77
2022/03/31 03:35:14;;;;;;;5.10;3.42;;;3.70;99.90;;;;;;5052716;28;20051;-82
2022/03/31 03:37:41;;;;;;;3.40;3.15;;;3.80;99.90;;;;;;5044858;28;20083;-80
2022/03/31 03:40:09;;;;;;;4.05;2.60;;;5.80;99.90;;;;;;5068538;28;20037;-80
2022/03/31 03:42:38;;;;;;;2.30;2.20;;;3.80;99.90;;;;;;5053263;28;20044;-82
2022/03/31 03:45:08;;;;;;;3.75;1.70;;;3.70;99.90;;;;;;5052633;28;20049;-79
2022/03/31 03:47:34;;;;;;;1.85;1.75;;;3.70;99.90;;;;;;5068196;28;20132;-82
2022/03/31 03:50:00;;;;;;;1.23;1.13;;;3.70;99.90;;;;;;5052713;28;20097;-81
2022/03/31 03:52:26;;;;;;;0.77;0.77;;;3.00;99.90;;;;;;5053085;28;20040;-82
2022/03/31 03:54:52;;;;;;;1.45;0.80;;;3.30;99.90;;;;;;5068638;28;20471;-82
2022/03/31 03:57:19;;;;;;;1.35;0.80;;;3.00;99.90;;;;;;5052252;28;20056;-80
2022/03/31 03:59:44;;;;;;;0.90;0.90;;;3.60;99.90;;;;;;5052478;28;20465;-78
2022/03/31 04:02:13;;;;;;;1.20;1.00;;;3.40;99.90;;;;;;5068343;28;20429;-81
2022/03/31 04:04:39;;;;;;;1.90;1.73;;;3.50;99.90;;;;;;5052749;28;20041;-81
2022/03/31 04:07:04;;;;;;;2.72;1.90;;;4.80;99.90;;;;;;5067770;28;20048;-81
2022/03/31 04:09:30;;;;;;;3.25;2.15;;;5.80;99.90;;;;;;5069025;28;20063;-80
2022/03/31 04:11:56;;;;;;;2.90;2.70;;;5.60;99.90;;;;;;5051956;28;20044;-80
2022/03/31 04:14:21;;;;;;;3.47;3.28;;;5.70;99.90;;;;;;5068263;28;20041;-83
2022/03/31 04:16:47;;;;;;;2.50;2.30;;;2.90;99.90;;;;;;5068703;28;20047;-82
2022/03/31 04:19:13;;;;;;;2.22;2.05;;;3.40;99.90;;;;;;5068584;28;20039;-79
2022/03/31 04:21:39;;;;;;;2.28;2.17;;;3.30;99.90;;;;;;5060049;28;20044;-81
2022/03/31 04:24:05;;;;;;;2.00;1.90;;;3.40;99.90;;;;;;5069881;28;20040;-81
2022/03/31 04:26:32;;;;;;;2.55;2.25;;;2.00;99.90;;;;;;5052071;28;20052;-82
2022/03/31 04:28:58;;;;;;;1.60;1.50;;;2.90;99.90;;;;;;5050812;28;20369;-81
2022/03/31 04:31:29;;;;;;;1.65;1.55;;;3.10;99.90;;;;;;5068419;28;20048;-81
2022/03/31 04:33:54;;;;;;;1.42;1.33;;;3.30;99.90;;;;;;5069576;28;20381;-82
2022/03/31 04:36:21;;;;;;;3.55;1.58;;;;;;;;;;5051067;28;20135;-79
2022/03/31 04:38:46;;;;;;;1.73;1.63;;;3.30;99.90;;;;;;5067991;28;20072;-77
2022/03/31 04:41:12;;;;;;;1.63;1.52;;;3.30;99.90;;;;;;5051679;28;20079;-79
2022/03/31 04:43:38;;;;;;;1.63;1.40;;;3.20;99.90;;;;;;5051515;28;20044;-80
2022/03/31 04:46:04;;;;;;;1.38;1.27;;;5.30;99.90;;;;;;5067519;28;20506;-82
2022/03/31 04:48:32;;;;;;;2.03;1.50;;;3.30;99.90;;;;;;5051968;28;20036;-82
2022/03/31 04:50:58;;;;;;;2.70;1.38;;;6.00;99.90;;;;;;5066989;28;20063;-83
2022/03/31 04:53:24;;;;;;;1.33;1.23;;;5.60;99.90;;;;;;5051607;28;20048;-82
2022/03/31 04:55:49;;;;;;;1.35;1.25;;;2.80;99.90;;;;;;5068151;28;20044;-81
2022/03/31 04:58:15;;;;;;;2.08;1.40;;;2.60;99.90;;;;;;5050295;28;20048;-81
2022/03/31 05:00:41;;;;;;;1.60;1.50;;;3.10;99.90;;;;;;5069028;28;20397;-80
2022/03/31 05:03:06;;;;;;;1.38;0.85;;;5.10;99.90;;;;;;5050841;28;20438;-80
2022/03/31 05:05:32;;;;;;;1.55;1.40;;;3.10;99.90;;;;;;5067460;28;20047;-78
2022/03/31 05:07:58;;;;;;;1.45;1.35;;;2.70;99.90;;;;;;5067337;28;20044;-81
2022/03/31 05:10:24;;;;;;;1.30;1.20;;;3.10;99.90;;;;;;5067400;28;20064;-79
2022/03/31 05:12:49;;;;;;;1.80;1.20;;;2.90;99.90;;;;;;5067370;28;20079;-82
2022/03/31 05:15:15;;;;;;;3.17;1.30;;;2.90;99.90;;;;;;5051082;28;20045;-82
2022/03/31 05:17:40;;;;;;;3.72;1.27;;;3.40;99.90;;;;;;5049856;28;20295;-83
2022/03/31 05:20:08;;;;;;;21.25;12.90;;;3.10;99.90;;;;;;5067282;28;20043;-78
2022/03/31 05:22:35;;;;;;;6.82;4.88;;;2.10;99.90;;;;;;5067889;28;20511;-79
2022/03/31 05:25:02;;;;;;;4.65;2.20;;;2.90;99.90;;;;;;5066862;28;20044;-79
2022/03/31 05:27:28;;;;;;;1.55;1.23;;;2.30;99.90;;;;;;5050843;28;20504;-80
2022/03/31 05:29:54;;;;;;;1.95;1.65;;;3.10;99.90;;;;;;5051176;28;20047;-82
2022/03/31 05:32:20;;;;;;;1.75;1.60;;;4.70;99.90;;;;;;5049704;28;20071;-81
2022/03/31 05:34:46;;;;;;;2.70;1.50;;;2.80;99.90;;;;;;5067228;28;20056;-78
2022/03/31 05:37:11;;;;;;;2.55;1.40;;;2.60;99.90;;;;;;5050152;28;20048;-77
2022/03/31 05:39:37;;;;;;;2.03;1.92;;;2.80;99.90;;;;;;5066707;28;20044;-80
2022/03/31 05:42:03;;;;;;;2.42;1.95;;;2.70;99.90;;;;;;5049849;28;20187;-78
2022/03/31 05:44:29;;;;;;;1.70;1.58;;;3.10;99.90;;;;;;5067320;28;20039;-79
2022/03/31 05:46:55;;;;;;;3.38;1.95;;;4.70;99.90;;;;;;5065869;28;20044;-80
2022/03/31 05:49:20;;;;;;;4.18;2.15;;;3.00;99.90;;;;;;5068223;28;20044;-79
2022/03/31 05:51:46;;;;;;;2.63;2.38;;;2.80;99.90;;;;;;5067057;28;20041;-78
2022/03/31 05:54:12;;;;;;;4.38;1.90;;;3.10;99.90;;;;;;5066538;28;20098;-78
2022/03/31 05:56:37;;;;;;;2.50;2.30;;;2.70;99.90;;;;;;5066868;28;20462;-79
2022/03/31 05:59:05;;;;;;;15.82;9.80;;;2.90;99.90;;;;;;5067163;28;20429;-75
2022/03/31 06:01:31;;;;;;;4.45;3.40;;;2.90;99.90;;;;;;5066841;28;20040;-76
2022/03/31 06:03:57;;;;;;;2.15;2.00;;;3.20;99.90;;;;;;5066696;28;20601;-76
2022/03/31 06:06:26;;;;;;;2.30;2.10;;;3.80;99.90;;;;;;5068366;28;20512;-77
2022/03/31 06:08:51;;;;;;;2.25;2.15;;;3.20;99.90;;;;;;5067694;28;20483;-76
2022/03/31 06:11:18;;;;;;;2.00;1.90;;;2.90;99.90;;;;;;5065903;28;20043;-80
2022/03/31 06:13:43;;;;;;;1.95;1.67;;;3.20;99.90;;;;;;5067540;28;20052;-77
2022/03/31 06:16:11;;;;;;;1.65;1.58;;;3.20;99.90;;;;;;5067824;28;20499;-81
2022/03/31 06:18:37;;;;;;;2.30;2.20;;;3.30;99.90;;;;;;5050314;28;20406;-76
2022/03/31 06:21:03;;;;;;;1.90;1.80;;;4.80;99.90;;;;;;5065968;28;20024;-77
2022/03/31 06:23:29;;;;;;;2.22;2.13;;;3.00;99.90;;;;;;5050004;28;20503;-81
2022/03/31 06:25:55;;;;;;;3.10;2.80;;;3.30;99.90;;;;;;5066991;28;20041;-76
2022/03/31 06:28:20;;;;;;;2.25;2.15;;;3.30;99.90;;;;;;5065854;28;20436;-80
2022/03/31 06:30:47;;;;;;;7.93;6.80;;;3.20;99.90;;;;;;5049949;28;20131;-82
2022/03/31 06:33:18;;;;;;;5.50;4.63;;;3.20;99.90;;;;;;5049353;28;20113;-80
2022/03/31 06:35:44;;;;;;;4.05;3.72;;;3.10;99.90;;;;;;5065991;28;20056;-77
2022/03/31 06:38:11;;;;;;;3.70;3.42;;;2.90;99.90;;;;;;5049461;28;20051;-79
2022/03/31 06:40:38;;;;;;;3.67;3.38;;;2.70;99.90;;;;;;5049857;28;20036;-75
2022/03/31 06:43:05;;;;;;;4.00;3.70;;;3.10;99.90;;;;;;5065887;28;20048;-77
2022/03/31 06:45:31;;;;;;;3.42;3.13;;;3.00;99.90;;;;;;5049740;28;20447;-77
2022/03/31 06:47:58;;;;;;;2.70;2.50;;;3.30;99.90;;;;;;5032997;28;20476;-75
2022/03/31 06:50:24;;;;;;;2.90;2.70;;;2.80;99.90;;;;;;5066319;28;20044;-76
2022/03/31 06:52:50;;;;;;;2.83;2.63;;;4.30;99.90;;;;;;5067429;28;20396;-78
2022/03/31 06:55:16;;;;;;;3.00;2.80;;;2.80;99.90;;;;;;5047611;28;20033;-81
2022/03/31 06:57:42;;;;;;;3.20;3.00;;;3.20;99.90;;;;;;5059539;28;20048;-77
2022/03/31 07:00:08;;;;;;;3.30;3.10;;;3.00;99.90;;;;;;5050044;28;20047;-81
2022/03/31 07:02:34;;;;;;;8.13;4.80;;;3.30;99.90;;;;;;5050030;28;20068;-81
2022/03/31 07:05:00;;;;;;;11.20;9.13;;;3.00;99.90;;;;;;5067094;28;20064;-81
2022/03/31 07:07:26;;;;;;;3.85;3.55;;;3.30;99.90;;;;;;5051138;28;20033;-81
2022/03/31 07:09:52;;;;;;;4.38;4.05;;;3.00;99.90;;;;;;5067741;28;20457;-78
2022/03/31 07:12:18;;;;;;;3.33;3.13;;;3.00;99.90;;;;;;5050287;28;20052;-81
2022/03/31 07:14:44;;;;;;;3.50;3.22;;;3.30;99.90;;;;;;5050856;28;20040;-78
2022/03/31 07:17:11;;;;;;;3.50;3.30;;;3.30;99.90;;;;;;5068486;28;20079;-82
2022/03/31 07:19:37;;;;;;;4.38;3.97;;;3.30;99.90;;;;;;5033030;28;20041;-76
2022/03/31 07:22:03;;;;;;;3.92;3.63;;;3.30;99.90;;;;;;5051432;28;20488;-79
2022/03/31 07:24:28;;;;;;;4.53;4.15;;;3.30;99.90;;;;;;5054574;28;20047;-76
2022/03/31 07:26:54;;;;;;;4.55;4.25;;;3.40;99.90;;;;;;5064687;28;20128;-76
2022/03/31 07:29:20;;;;;;;4.30;4.00;;;3.30;99.90;;;;;;5055096;28;20412;-81
2022/03/31 07:31:45;;;;;;;5.03;4.70;;;3.10;99.90;;;;;;5053476;28;20451;-82
2022/03/31 07:34:11;;;;;;;4.60;4.30;;;3.00;99.90;;;;;;5054532;28;20051;-81
2022/03/31 07:36:37;;;;;;;5.43;4.85;;;2.80;99.90;;;;;;5053690;28;20040;-81
2022/03/31 07:39:03;;;;;;;5.50;4.95;;;3.30;99.90;;;;;;5053995;28;20472;-81
2022/03/31 07:41:28;;;;;;;5.22;4.82;;;3.30;99.90;;;;;;5052918;28;20039;-80
2022/03/31 07:43:56;;;;;;;4.80;4.40;;;2.90;99.90;;;;;;5071095;28;20048;-77
2022/03/31 07:46:22;;;;;;;5.55;5.05;;;3.40;99.90;;;;;;5070079;28;20041;-79
2022/03/31 07:48:47;;;;;;;4.95;4.60;;;2.80;99.90;;;;;;5071218;28;20044;-82
2022/03/31 07:51:13;;;;;;;4.90;4.60;;;2.90;99.90;;;;;;5054342;28;20151;-82
2022/03/31 07:53:38;;;;;;;4.50;4.20;;;2.90;99.90;;;;;;5053730;28;20084;-82
2022/03/31 07:56:05;;;;;;;5.45;5.00;;;3.20;99.90;;;;;;5054018;28;20144;-80
2022/03/31 07:58:31;;;;;;;5.07;4.68;;;;;;;;;;5054702;28;20041;-82
2022/03/31 08:00:57;;;;;;;5.38;4.97;;;3.40;99.90;;;;;;5069564;28;20037;-76
2022/03/31 08:03:23;;;;;;;5.28;4.88;;;2.90;99.90;;;;;;5054360;28;20041;-82
2022/03/31 08:05:50;;;;;;;6.00;5.50;;;3.00;99.90;;;;;;5070206;28;20067;-80
2022/03/31 08:08:15;;;;;;;5.97;5.47;;;3.30;99.90;;;;;;5068681;28;20050;-81
2022/03/31 08:10:42;;;;;;;5.10;4.70;;;3.20;99.90;;;;;;5047769;28;20127;-78
2022/03/31 08:13:09;;;;;;;5.10;4.60;;;3.30;99.90;;;;;;5069769;28;20153;-78
2022/03/31 08:15:35;;;;;;;5.78;4.60;;;3.30;99.90;;;;;;5071209;28;20044;-80
2022/03/31 08:18:01;;;;;;;5.10;4.70;;;2.90;99.90;;;;;;5059548;28;20036;-81
2022/03/31 08:20:27;;;;;;;3.50;3.30;;;3.30;99.90;;;;;;5071752;28;20036;-76
2022/03/31 08:22:53;;;;;;;3.70;3.47;;;3.10;99.90;;;;;;5070427;28;20111;-82
2022/03/31 08:25:20;;;;;;;4.32;3.97;;;3.20;99.90;;;;;;5052712;28;20476;-78
2022/03/31 08:27:46;;;;;;;4.68;4.30;;;2.90;99.90;;;;;;5069048;28;20044;-77
2022/03/31 08:30:16;;;;;;;4.88;4.50;;;3.00;99.90;;;;;;5070719;28;20029;-81
2022/03/31 08:32:43;;;;;;;5.28;4.88;;;3.20;99.90;;;;;;5070423;28;20040;-80
2022/03/31 08:35:10;;;;;;;5.40;5.00;;;3.50;99.90;;;;;;5068993;28;20050;-78
2022/03/31 08:37:38;;;;;;;5.43;4.95;;;3.00;99.90;;;;;;5066974;28;20464;-76
2022/03/31 08:40:06;;;;;;;6.60;5.35;;;2.80;99.90;;;;;;5052011;28;20293;-81
2022/03/31 08:42:31;;;;;;;4.40;4.10;;;3.30;99.90;;;;;;5053300;28;20131;-78
2022/03/31 08:44:58;;;;;;;5.30;4.90;;;3.10;99.90;;;;;;5066152;28;20159;-79
2022/03/31 08:47:26;;;;;;;5.88;5.38;;;5.10;99.90;;;;;;5064233;28;20040;-76
2022/03/31 08:49:53;;;;;;;22.13;14.77;;;2.80;99.90;;;;;;5052275;28;20048;-77
2022/03/31 08:52:19;;;;;;;7.63;6.82;;;4.70;99.90;;;;;;5052753;28;20037;-76
2022/03/31 08:54:45;;;;;;;6.45;5.75;;;2.90;99.90;;;;;;5053322;28;20036;-80
2022/03/31 08:57:10;;;;;;;7.32;6.45;;;2.60;99.90;;;;;;5068663;28;20412;-81
2022/03/31 08:59:36;;;;;;;6.40;5.82;;;2.40;99.90;;;;;;5053697;28;20040;-80
2022/03/31 09:02:02;;;;;;;19.45;14.82;;;3.20;99.90;;;;;;5069042;28;20052;-79
2022/03/31 09:04:28;;;;;;;13.55;10.13;;;3.10;99.90;;;;;;5035262;28;20028;-77
2022/03/31 09:07:01;;;;;;;10.60;9.20;;;3.10;99.90;;;;;;5069524;28;20052;-81
2022/03/31 09:09:27;;;;;;;10.95;9.60;;;2.90;99.90;;;;;;5053174;28;20102;-77
2022/03/31 09:11:53;;;;;;;9.13;8.20;;;3.10;99.90;;;;;;5052804;28;20043;-76
2022/03/31 09:14:28;;;;;;;9.30;8.40;;;3.40;99.90;;;;;;5053118;28;20036;-81
2022/03/31 09:16:54;;;;;;;8.10;7.30;;;2.60;99.90;;;;;;5067293;28;20036;-77
2022/03/31 09:19:20;;;;;;;11.18;9.10;;;2.60;99.90;;;;;;5066692;28;20051;-80
2022/03/31 09:21:51;;;;;;;22.27;16.10;;;2.90;99.90;;;;;;5052074;28;20047;-79
2022/03/31 09:24:19;;;;;;;11.20;9.98;;;2.80;99.90;;;;;;5066637;28;20040;-81
2022/03/31 09:26:47;;;;;;;10.93;9.50;;;2.80;99.90;;;;;;5065946;28;20093;-77
2022/03/31 09:29:27;;;;;;;13.32;11.70;;;2.70;99.90;;;;;;5060756;28;20036;-79
2022/03/31 09:32:04;;;;;;;14.25;12.27;;;2.50;99.90;;;;;;5065710;28;20052;-76
2022/03/31 09:34:42;;;;;;;10.63;9.35;;;2.40;99.90;;;;;;5050762;28;20583;-76
2022/03/31 09:37:09;;;;;;;12.77;11.38;;;2.70;99.90;;;;;;5066879;28;20098;-79
2022/03/31 09:39:35;;;;;;;11.27;10.18;;;2.10;99.90;;;;;;5068776;28;20484;-80
2022/03/31 09:42:11;;;;;;;8.45;7.65;;;2.40;99.90;;;;;;5066757;28;20082;-80
2022/03/31 09:44:37;;;;;;;10.10;8.65;;;4.10;99.90;;;;;;5068380;28;20137;-81
2022/03/31 09:47:02;;;;;;;9.23;8.32;;;2.50;99.90;;;;;;5049817;28;20460;-81
2022/03/31 09:49:28;;;;;;;8.02;7.25;;;4.60;99.90;;;;;;5051006;28;20032;-82
2022/03/31 09:51:56;;;;;;;8.00;7.20;;;2.30;99.90;;;;;;5066270;28;20377;-81
2022/03/31 09:54:25;;;;;;;8.02;7.22;;;2.00;99.90;;;;;;5051302;28;20593;-77
2022/03/31 09:56:51;;;;;;;6.60;6.00;;;1.80;99.90;;;;;;5049842;28;20032;-80
2022/03/31 09:59:17;;;;;;;5.88;5.28;;;2.00;99.90;;;;;;5049915;28;20090;-82
2022/03/31 10:01:44;;;;;;;5.03;4.53;;;2.20;99.90;;;;;;5050838;28;20447;-80
2022/03/31 10:04:11;;;;;;;4.55;4.15;;;1.60;99.90;;;;;;5051754;28;20063;-82
2022/03/31 10:06:40;;;;;;;5.03;4.53;;;2.20;99.90;;;;;;5066183;28;20496;-82
2022/03/31 10:09:10;;;;;;;4.60;4.20;;;2.20;99.90;;;;;;5066619;28;20106;-82
2022/03/31 10:11:44;;;;;;;4.32;4.03;;;4.30;99.90;;;;;;5066900;28;20041;-77
2022/03/31 10:14:25;;;;;;;4.00;3.70;;;1.60;99.90;;;;;;5066378;28;20041;-78
2022/03/31 10:16:59;;;;;;;4.57;4.18;;;2.20;99.90;;;;;;5066651;28;20045;-77
2022/03/31 10:19:44;;;;;;;5.10;4.60;;;2.00;99.90;;;;;;5067373;28;20036;-76
2022/03/31 10:25:05;;;;;;;8.43;7.03;;;4.10;99.90;;;;;;5066286;28;20443;-76
2022/03/31 10:27:34;;;;;;;5.38;4.88;;;2.00;99.90;;;;;;5033070;28;20040;-76
2022/03/31 10:30:26;;;;;;;5.75;5.13;;;1.50;99.90;;;;;;5066195;28;20047;-81
2022/03/31 10:32:53;;;;;;;11.75;8.00;;;1.30;99.90;;;;;;5063569;28;20091;-83
2022/03/31 10:35:23;;;;;;;5.57;4.90;;;1.40;99.90;;;;;;5065827;28;20048;-78
2022/03/31 10:37:50;;;;;;;4.63;4.22;;;1.40;99.90;;;;;;5066710;28;20044;-76
2022/03/31 10:40:33;;;;;;;4.78;4.38;;;1.90;99.90;;;;;;5058408;28;20037;-87
2022/03/31 10:42:59;;;;;;;5.18;4.60;;;1.90;99.90;;;;;;5048774;28;20044;-82
2022/03/31 10:45:35;;;;;;;5.85;5.35;;;3.80;99.90;;;;;;5027591;28;20185;-82
2022/03/31 10:48:13;;;;;;;5.00;4.45;;;3.60;99.90;;;;;;5056672;28;20373;-86
2022/03/31 10:50:38;;;;;;;5.82;4.10;;;1.90;99.90;;;;;;5051723;28;20504;-85
2022/03/31 10:53:04;;;;;;;4.15;3.80;;;1.40;99.90;;;;;;5069021;28;20044;-84
2022/03/31 10:55:36;;;;;;;3.60;3.33;;;1.60;99.90;;;;;;5067947;28;20055;-85
2022/03/31 10:58:02;;;;;;;4.47;3.28;;;1.70;99.90;;;;;;5069996;28;20127;-81
2022/03/31 11:00:28;;;;;;;3.10;2.90;;;1.80;99.90;;;;;;5073959;28;20471;-84
2022/03/31 11:02:55;;;;;;;3.38;3.08;;;1.80;99.90;;;;;;5072988;28;20186;-84
2022/03/31 11:05:25;;;;;;;2.85;2.65;;;1.40;99.90;;;;;;5054676;28;20288;-84
2022/03/31 11:08:04;;;;;;;2.35;2.25;;;1.80;99.90;;;;;;5070369;28;20044;-84
2022/03/31 11:10:41;;;;;;;3.08;2.30;;;1.90;99.90;;;;;;5070950;28;20041;-85
2022/03/31 11:13:07;;;;;;;3.00;2.65;;;1.90;99.90;;;;;;5072590;28;20194;-86
2022/03/31 11:15:34;;;;;;;3.15;2.95;;;1.80;99.90;;;;;;5071883;28;20071;-83
2022/03/31 11:18:00;;;;;;;3.00;2.70;;;1.80;99.90;;;;;;5071002;28;20154;-80
2022/03/31 11:20:27;;;;;;;3.05;2.72;;;1.80;99.90;;;;;;5071823;28;20503;-84
2022/03/31 11:23:08;;;;;;;3.22;2.90;;;4.00;99.90;;;;;;5054792;28;20047;-79
2022/03/31 11:25:34;;;;;;;2.58;2.47;;;1.70;99.90;;;;;;5067011;28;20048;-79
2022/03/31 11:28:08;;;;;;;2.92;2.47;;;1.70;99.90;;;;;;5071015;28;20051;-83
2022/03/31 11:30:34;;;;;;;5.22;2.88;;;1.40;99.90;;;;;;5071204;28;20045;-87
2022/03/31 11:33:00;;;;;;;2.83;2.60;;;1.90;99.90;;;;;;5072790;28;20055;-78
2022/03/31 11:35:28;;;;;;;19.85;12.20;;;1.60;99.90;;;;;;5070679;28;20048;-87
2022/03/31 11:38:01;;;;;;;3.83;3.10;;;2.30;99.90;;;;;;5070781;28;20052;-86
2022/03/31 11:40:28;;;;;;;2.13;2.03;;;1.50;99.90;;;;;;5064575;28;20117;-83
2022/03/31 11:42:56;;;;;;;2.95;2.75;;;1.70;99.90;;;;;;5071399;28;20040;-85
2022/03/31 11:45:27;;;;;;;3.42;3.13;;;1.70;99.90;;;;;;5070683;28;20040;-79
2022/03/31 11:47:58;;;;;;;3.60;3.30;;;1.70;99.90;;;;;;5073083;28;20036;-85
2022/03/31 11:50:24;;;;;;;3.25;2.95;;;1.50;99.90;;;;;;5064251;28;20054;-79
2022/03/31 11:52:50;;;;;;;3.22;2.85;;;3.80;99.90;;;;;;5068674;28;20060;-87
2022/03/31 11:55:15;;;;;;;6.05;4.78;;;1.50;99.90;;;;;;5071402;28;20053;-86
2022/03/31 11:57:51;;;;;;;11.63;7.85;;;1.50;99.90;;;;;;5053972;28;20087;-87
2022/03/31 12:00:17;;;;;;;5.38;3.97;;;1.50;99.90;;;;;;5042504;28;20090;-86
2022/03/31 12:02:57;;;;;;;3.60;3.15;;;1.60;99.90;;;;;;5046985;28;20048;-80
2022/03/31 12:05:23;;;;;;;4.80;3.28;;;1.60;99.90;;;;;;5053593;28;20460;-83
2022/03/31 12:07:50;;;;;;;4.75;3.50;;;1.40;99.90;;;;;;5068493;28;20067;-86
2022/03/31 12:10:16;;;;;;;5.10;4.47;;;1.00;99.90;;;;;;5065753;28;20044;-79
2022/03/31 12:12:52;;;;;;;5.45;4.10;;;1.30;99.90;;;;;;5071158;28;20044;-83
2022/03/31 12:15:26;;;;;;;4.38;3.65;;;0.80;99.90;;;;;;5070019;28;20044;-84
2022/03/31 12:18:07;;;;;;;10.68;7.50;;;1.10;99.90;;;;;;5068235;28;20041;-82
2022/03/31 12:20:36;;;;;;;4.28;3.78;;;1.20;99.90;;;;;;5067126;28;20102;-82
2022/03/31 12:23:03;;;;;;;8.73;5.45;;;0.90;99.90;;;;;;5053434;28;20044;-82
2022/03/31 12:25:36;;;;;;;22.45;12.02;;;1.20;99.90;;;;;;5070244;28;20135;-84
2022/03/31 12:28:09;;;;;;;5.22;4.32;;;1.30;99.90;;;;;;5031955;28;20040;-83
2022/03/31 12:30:47;;;;;;;5.32;4.43;;;1.40;99.90;;;;;;5047326;28;20582;-83
2022/03/31 12:33:24;;;;;;;3.35;3.05;;;1.40;99.90;;;;;;5067561;28;20040;-78
2022/03/31 12:36:02;;;;;;;13.65;7.72;;;1.20;99.90;;;;;;5052709;28;20060;-78
2022/03/31 12:38:46;;;;;;;7.75;5.35;;;1.40;99.90;;;;;;5053273;28;20515;-77
2022/03/31 12:41:16;;;;;;;23.10;13.25;;;1.40;99.90;;;;;;5070011;28;20059;-76
2022/03/31 12:43:53;;;;;;;17.15;9.77;;;2.00;99.90;;;;;;5070245;28;20059;-77
2022/03/31 12:46:19;;;;;;;15.48;8.55;;;0.80;99.90;;;;;;5070277;28;20048;-79
2022/03/31 12:48:56;;;;;;;13.82;7.30;;;1.30;99.90;;;;;;5053008;28;20067;-80
2022/03/31 12:51:23;;;;;;;6.75;4.78;;;1.00;99.90;;;;;;5052468;28;20436;-79
2022/03/31 12:53:49;;;;;;;5.90;5.30;;;0.30;99.90;;;;;;5052332;28;20048;-76
2022/03/31 12:56:27;;;;;;;36.70;21.13;;;1.20;99.90;;;;;;5069297;28;20048;-78
2022/03/31 12:58:55;;;;;;;11.43;7.70;;;2.00;99.90;;;;;;5070041;28;20044;-77
2022/03/31 13:01:25;;;;;;;9.70;7.15;;;0.80;99.90;;;;;;5068545;28;20045;-80
2022/03/31 13:03:51;;;;;;;9.05;6.57;;;0.60;99.90;;;;;;5070581;28;20068;-81
2022/03/31 13:06:17;;;;;;;9.18;6.88;;;1.30;99.90;;;;;;5070702;28;20082;-78